Time;durP1;ratioP1;P1;durP2;ratioP2;P2;SDS_P1;SDS_P2;PMS_P1;PMS_P2;Temp;Humidity;BMP_temperature;BMP_pressure;BME280_temperature;BME280_humidity;BME280_pressure;Samples;Min_cycle;Max_cycle;Signal;HPM_P1;HPM_P2
2021/12/20 00:01:04;;;;;;;2.05;1.27;;;;;;;1.61;74.78;97636.41;1772925;80;21018;-39
2021/12/20 00:03:33;;;;;;;1.55;0.85;;;;;;;1.61;74.80;97644.42;1801871;79;21008;-38
2021/12/20 00:06:02;;;;;;;3.58;1.32;;;;;;;1.67;74.63;97648.41;1781801;79;20965;-38
2021/12/20 00:08:31;;;;;;;1.52;1.10;;;;;;;1.70;74.62;97651.16;1762844;79;21016;-38
2021/12/20 00:10:57;;;;;;;1.87;1.20;;;;;;;1.74;74.59;97658.70;1788518;79;20949;-39
2021/12/20 00:13:23;;;;;;;1.47;1.00;;;;;;;1.73;74.19;97656.39;1777025;79;21036;-39
2021/12/20 00:15:51;;;;;;;5.35;1.22;;;;;;;1.68;74.11;97645.95;1781438;79;20992;-38
2021/12/20 00:18:20;;;;;;;1.92;1.10;;;;;;;1.65;74.05;97653.30;1770948;79;21484;-38
2021/12/20 00:20:46;;;;;;;1.47;1.10;;;;;;;1.70;73.92;97651.72;1796753;79;21887;-39
2021/12/20 00:23:13;;;;;;;2.47;1.12;;;;;;;1.72;73.90;97660.17;1795161;79;20950;-39
2021/12/20 00:25:40;;;;;;;1.67;1.00;;;;;;;1.73;73.67;97660.40;1745289;81;21488;-39
2021/12/20 00:28:07;;;;;;;1.62;1.02;;;;;;;1.70;73.43;97662.41;1739790;81;21026;-38
2021/12/20 00:30:35;;;;;;;1.98;1.10;;;;;;;1.67;73.29;97659.09;1751270;81;21538;-38
2021/12/20 00:33:02;;;;;;;3.00;0.95;;;;;;;1.64;73.26;97663.23;1735904;81;21129;-38
2021/12/20 00:35:29;;;;;;;1.80;1.10;;;;;;;1.63;73.11;97652.33;1760819;81;21483;-39
2021/12/20 00:40:41;;;;;;;4.12;1.30;;;;;;;1.52;73.22;97659.83;1742596;81;21499;-38
2021/12/20 00:43:08;;;;;;;1.70;1.07;;;;;;;1.46;73.50;97661.19;1762827;81;21088;-38
2021/12/20 00:45:36;;;;;;;3.20;1.22;;;;;;;1.46;73.40;97661.19;1762195;81;21090;-38
2021/12/20 00:48:06;;;;;;;2.25;1.17;;;;;;;1.47;73.53;97661.41;1745796;82;21024;-39
2021/12/20 00:50:33;;;;;;;1.02;0.90;;;;;;;1.42;73.68;97656.31;1741540;81;20993;-38
2021/12/20 00:52:59;;;;;;;1.57;1.10;;;;;;;1.34;73.81;97658.58;1685668;85;21076;-38
2021/12/20 00:55:28;;;;;;;1.90;1.12;;;;;;;1.30;73.96;97663.28;1750242;81;21026;-38
2021/12/20 00:57:57;;;;;;;2.12;1.10;;;;;;;1.30;73.91;97654.48;1766506;81;21148;-39
2021/12/20 01:00:29;;;;;;;3.62;1.32;;;;;;;1.28;74.09;97661.49;1738462;81;20981;-38
2021/12/20 01:02:56;;;;;;;2.45;1.05;;;;;;;1.24;74.14;97656.62;1737099;81;21083;-38
2021/12/20 01:05:27;;;;;;;3.33;1.17;;;;;;;1.22;74.24;97658.84;1738593;81;21724;-38
2021/12/20 01:07:57;;;;;;;2.47;1.07;;;;;;;1.25;74.24;97655.51;1743195;81;21032;-38
2021/12/20 01:10:25;;;;;;;2.33;1.40;;;;;;;1.23;74.21;97659.06;1759493;81;20990;-38
2021/12/20 01:12:53;;;;;;;2.77;1.10;;;;;;;1.18;74.46;97658.52;1738075;81;21741;-38
2021/12/20 01:15:24;;;;;;;2.58;1.40;;;;;;;1.13;74.51;97664.09;1765594;81;21634;-38
2021/12/20 01:17:51;;;;;;;2.08;1.27;;;;;;;1.13;74.66;97663.55;1686316;85;21037;-38
2021/12/20 01:20:18;;;;;;;2.83;1.02;;;;;;;1.15;74.65;97659.98;1746977;80;21053;-38
2021/12/20 01:22:49;;;;;;;2.40;1.10;;;;;;;1.16;74.90;97666.86;1756041;81;21136;-38
2021/12/20 01:25:16;;;;;;;1.90;1.10;;;;;;;1.15;74.75;97668.00;1767087;80;20961;-38
2021/12/20 01:27:43;;;;;;;1.80;1.02;;;;;;;1.13;74.87;97660.09;1756209;80;20986;-39
2021/12/20 01:30:11;;;;;;;2.40;1.17;;;;;;;1.13;74.72;97668.87;1782405;80;21464;-39
2021/12/20 01:32:39;;;;;;;3.27;1.02;;;;;;;1.16;74.76;97673.53;1787332;80;21021;-39
2021/12/20 01:35:08;;;;;;;1.55;1.12;;;;;;;1.17;74.77;97670.30;1783727;80;21139;-38
2021/12/20 01:37:34;;;;;;;2.47;1.15;;;;;;;1.16;74.78;97664.19;1786104;80;21001;-38
2021/12/20 01:40:02;;;;;;;1.70;1.00;;;;;;;1.19;74.56;97670.20;1786326;80;21331;-38
2021/12/20 01:42:32;;;;;;;2.47;1.20;;;;;;;1.19;74.37;97672.88;1786078;80;21796;-39
2021/12/20 01:44:58;;;;;;;1.98;1.20;;;;;;;1.17;74.44;97671.09;1774826;80;21697;-38
2021/12/20 01:47:33;;;;;;;1.20;1.10;;;;;;;1.15;74.54;97669.33;1783511;80;21224;-39
2021/12/20 01:50:04;;;;;;;1.82;1.00;;;;;;;1.13;74.57;97672.88;1786344;80;21042;-38
2021/12/20 01:52:28;;;;;;;2.62;1.15;;;;;;;1.18;74.51;97667.31;1786262;80;21023;-38
2021/12/20 01:54:55;;;;;;;2.20;1.00;;;;;;;1.22;74.39;97673.52;1768922;80;21568;-38
2021/12/20 01:57:23;;;;;;;2.92;1.20;;;;;;;1.20;74.27;97671.77;1760689;80;21032;-38
2021/12/20 01:59:49;;;;;;;2.00;1.07;;;;;;;1.18;74.40;97671.31;1771823;80;21111;-38
2021/12/20 02:02:16;;;;;;;2.15;1.00;;;;;;;1.17;74.43;97671.64;1771813;80;21004;-38
2021/12/20 02:04:50;;;;;;;1.90;0.93;;;;;;;1.19;74.25;97676.09;1786913;80;21028;-38
2021/12/20 02:07:32;;;;;;;1.32;0.80;;;;;;;1.18;74.29;97673.20;1766196;80;21012;-38
2021/12/20 02:09:42;;;;;;;2.27;1.07;;;;;;;1.15;74.31;97675.22;1780837;80;20990;-38
2021/12/20 02:12:10;;;;;;;2.42;0.90;;;;;;;1.14;74.34;97676.33;1762806;80;21066;-38
2021/12/20 02:14:36;;;;;;;1.32;0.93;;;;;;;1.17;74.29;97676.98;1746347;80;21519;-38
2021/12/20 02:17:03;;;;;;;3.27;1.20;;;;;;;1.20;74.15;97682.99;1762223;80;21511;-38
2021/12/20 02:19:30;;;;;;;2.20;1.30;;;;;;;1.18;74.27;97677.98;1758453;80;21026;-38
2021/12/20 02:21:57;;;;;;;3.15;1.27;;;;;;;1.14;74.11;97681.11;1770757;80;21282;-39
2021/12/20 02:24:23;;;;;;;1.45;0.90;;;;;;;1.13;74.27;97682.78;1762144;80;21126;-38
2021/12/20 02:26:50;;;;;;;1.45;1.00;;;;;;;1.14;74.26;97681.11;1750687;79;21021;-39
2021/12/20 02:29:26;;;;;;;2.33;0.90;;;;;;;1.17;74.31;97675.64;1744852;79;21284;-38
2021/12/20 02:37:27;;;;;;;1.30;0.90;;;;;;;1.13;74.17;97682.22;1751316;80;21127;-38
2021/12/20 02:39:46;;;;;;;2.55;0.95;;;;;;;1.14;74.04;97683.78;1754883;80;21002;-38
2021/12/20 02:42:17;;;;;;;4.55;1.25;;;;;;;1.09;74.01;97680.02;1746285;80;20918;-38
2021/12/20 02:44:59;;;;;;;2.17;0.80;;;;;;;1.06;74.11;97686.59;1751095;80;20981;-38
2021/12/20 02:47:28;;;;;;;2.90;1.20;;;;;;;1.05;74.12;97689.81;1770837;80;21863;-39
2021/12/20 02:49:47;;;;;;;0.78;0.75;;;;;;;1.10;74.00;97682.91;1769937;80;21801;-38
2021/12/20 02:52:14;;;;;;;2.15;0.90;;;;;;;1.13;73.96;97685.45;1773250;80;20957;-38
2021/12/20 02:54:40;;;;;;;1.62;0.90;;;;;;;1.12;73.86;97688.67;1773352;80;21503;-39
2021/12/20 02:57:07;;;;;;;2.15;1.07;;;;;;;1.12;73.85;97687.34;1711564;82;21586;-38
2021/12/20 02:59:34;;;;;;;1.80;1.10;;;;;;;1.13;73.80;97688.12;1760051;80;21021;-38
2021/12/20 03:02:05;;;;;;;3.40;1.10;;;;;;;1.15;73.74;97688.56;1773389;80;21251;-38
2021/12/20 03:04:31;;;;;;;1.07;0.88;;;;;;;1.09;73.95;97694.69;1761649;80;21041;-39
2021/12/20 03:07:02;;;;;;;1.50;0.90;;;;;;;1.02;74.13;97694.47;1748437;80;21547;-38
2021/12/20 03:09:34;;;;;;;2.20;0.88;;;;;;;1.04;74.36;97689.59;1744884;80;21041;-38
2021/12/20 03:12:01;;;;;;;2.60;1.00;;;;;;;1.06;74.25;97686.59;1772875;80;21084;-38
2021/12/20 03:14:33;;;;;;;2.00;0.90;;;;;;;1.05;74.40;97691.15;1763860;80;21207;-38
2021/12/20 03:16:58;;;;;;;2.15;0.80;;;;;;;1.01;74.57;97692.16;1745551;80;21022;-38
2021/12/20 03:19:26;;;;;;;1.52;0.90;;;;;;;0.99;74.82;97696.49;1745535;80;20978;-38
2021/12/20 03:21:54;;;;;;;2.83;0.90;;;;;;;1.06;74.82;97698.60;1744600;80;20933;-38
2021/12/20 03:24:22;;;;;;;;;;;;;;;1.09;74.93;97691.25;1756266;80;20978;-38
2021/12/20 03:26:49;;;;;;;2.65;0.90;;;;;;;1.08;74.89;97694.47;1750648;80;21821;-38
2021/12/20 03:29:15;;;;;;;1.32;0.82;;;;;;;0.98;75.17;97700.82;1757591;80;20960;-38
2021/12/20 03:31:42;;;;;;;1.10;0.95;;;;;;;1.03;75.07;97697.37;1764777;80;20986;-38
2021/12/20 03:34:08;;;;;;;2.55;1.00;;;;;;;1.07;74.62;97700.91;1756241;80;21014;-38
2021/12/20 03:36:35;;;;;;;1.65;0.88;;;;;;;1.05;74.28;97693.04;1754821;80;21641;-38
2021/12/20 03:39:07;;;;;;;1.00;0.80;;;;;;;0.98;74.08;97698.94;1743001;80;21150;-38
2021/12/20 03:41:33;;;;;;;2.45;1.05;;;;;;;0.96;74.26;97698.51;1773923;79;21068;-38
2021/12/20 03:44:00;;;;;;;2.58;1.00;;;;;;;0.96;74.10;97694.52;1752239;80;21496;-38
2021/12/20 03:46:27;;;;;;;1.20;0.80;;;;;;;0.90;73.94;97690.52;1759832;80;20966;-38
2021/12/20 03:48:53;;;;;;;1.70;0.85;;;;;;;0.85;73.86;97693.41;1752049;80;21049;-38
2021/12/20 03:51:20;;;;;;;1.55;0.85;;;;;;;0.81;73.73;97696.53;1769277;80;21863;-38
2021/12/20 03:53:46;;;;;;;1.90;0.75;;;;;;;0.82;73.55;97707.42;1749540;80;21004;-38
2021/12/20 03:56:13;;;;;;;1.77;1.00;;;;;;;0.79;73.54;97698.74;1720319;82;21036;-38
2021/12/20 03:58:40;;;;;;;3.08;1.20;;;;;;;0.75;73.61;97702.64;1747455;80;21022;-38
2021/12/20 04:01:10;;;;;;;1.52;1.02;;;;;;;0.74;73.49;97710.97;1744779;80;21829;-38
2021/12/20 04:03:37;;;;;;;1.45;0.95;;;;;;;0.75;73.66;97710.65;1753216;80;21081;-39
2021/12/20 04:06:07;;;;;;;1.35;1.10;;;;;;;0.74;73.77;97709.64;1761848;80;20953;-38
2021/12/20 04:08:33;;;;;;;3.13;1.00;;;;;;;0.75;73.87;97713.87;1758123;80;21523;-38
2021/12/20 04:11:00;;;;;;;3.17;1.20;;;;;;;0.76;73.75;97716.20;1757117;80;21129;-38
2021/12/20 04:13:27;;;;;;;2.40;1.00;;;;;;;0.76;73.69;97714.09;1771755;80;21041;-38
2021/12/20 04:15:54;;;;;;;2.00;1.00;;;;;;;0.81;73.77;97719.20;1758453;80;21875;-38
2021/12/20 04:18:22;;;;;;;1.82;1.02;;;;;;;0.89;73.51;97720.96;1744205;80;21638;-38
2021/12/20 04:20:49;;;;;;;2.37;1.10;;;;;;;0.91;73.50;97717.41;1762837;80;21813;-39
2021/12/20 04:23:16;;;;;;;2.15;1.00;;;;;;;0.91;73.52;97714.75;1745066;80;21601;-39
2021/12/20 04:25:43;;;;;;;1.52;0.90;;;;;;;0.91;73.68;97717.41;1772448;80;21029;-38
2021/12/20 04:28:10;;;;;;;1.57;1.07;;;;;;;0.95;73.96;97726.30;1750585;80;21140;-38
2021/12/20 04:30:36;;;;;;;2.45;1.05;;;;;;;0.95;74.84;97728.19;1759302;80;21789;-39
2021/12/20 04:33:03;;;;;;;2.25;1.07;;;;;;;0.96;75.41;97729.75;1766286;80;20981;-38
2021/12/20 04:35:30;;;;;;;2.05;1.20;;;;;;;0.87;76.14;97731.96;1760871;80;21049;-38
2021/12/20 04:37:58;;;;;;;2.12;1.27;;;;;;;0.81;76.46;97730.66;1771776;80;21523;-38
2021/12/20 04:40:25;;;;;;;2.42;1.15;;;;;;;0.81;76.57;97741.88;1773344;80;21874;-38
2021/12/20 04:42:55;;;;;;;3.25;1.42;;;;;;;0.82;76.55;97734.86;1773396;80;20953;-38
2021/12/20 04:45:23;;;;;;;3.25;1.10;;;;;;;0.84;76.51;97741.20;1753786;80;21068;-39
2021/12/20 04:47:50;;;;;;;1.47;1.10;;;;;;;0.84;76.49;97735.86;1754574;80;21064;-38
2021/12/20 04:50:17;;;;;;;1.37;0.88;;;;;;;0.86;76.39;97738.98;1765029;80;21098;-38
2021/12/20 04:52:45;;;;;;;1.75;1.02;;;;;;;0.90;76.21;97733.20;1766094;80;21146;-38
2021/12/20 04:55:12;;;;;;;2.22;0.98;;;;;;;0.95;75.99;97737.52;1771579;80;21512;-39
2021/12/20 04:57:41;;;;;;;1.80;1.17;;;;;;;0.92;75.92;97734.95;1771349;80;21061;-38
2021/12/20 05:00:15;;;;;;;1.72;1.00;;;;;;;0.90;75.87;97738.53;1773107;80;20984;-38
2021/12/20 05:02:42;;;;;;;1.80;0.90;;;;;;;0.94;75.90;97742.08;1762959;80;21052;-39
2021/12/20 05:05:10;;;;;;;2.85;1.27;;;;;;;1.04;75.67;97748.84;1759610;80;21190;-39
2021/12/20 05:07:39;;;;;;;1.65;1.10;;;;;;;1.05;75.12;97749.86;1743404;80;21047;-38
2021/12/20 05:10:12;;;;;;;1.37;1.12;;;;;;;0.99;74.90;97744.52;1757465;80;20997;-38
2021/12/20 05:12:40;;;;;;;1.95;1.20;;;;;;;0.90;74.81;97746.53;1706974;84;20946;-38
2021/12/20 05:15:08;;;;;;;2.08;1.10;;;;;;;0.88;74.79;97755.42;1758502;79;21050;-38
2021/12/20 05:17:36;;;;;;;2.20;1.20;;;;;;;0.88;74.70;97759.42;1761273;80;21097;-38
2021/12/20 05:20:05;;;;;;;2.35;1.42;;;;;;;0.83;74.75;97756.42;1743671;80;20954;-38
2021/12/20 05:22:33;;;;;;;;;;;;;;;0.79;74.67;97754.76;1752473;80;21022;-38
2021/12/20 05:25:00;;;;;;;2.75;1.00;;;;;;;0.74;74.70;97761.65;1749404;80;20210;-39
2021/12/20 05:27:26;;;;;;;1.17;0.95;;;;;;;0.71;74.82;97754.33;1749953;80;21559;-38
2021/12/20 05:29:53;;;;;;;2.47;1.00;;;;;;;0.74;74.70;97756.31;1748187;80;21082;-38
2021/12/20 05:32:20;;;;;;;1.55;0.98;;;;;;;0.71;74.76;97761.77;1742569;82;20961;-38
2021/12/20 05:34:47;;;;;;;4.12;1.20;;;;;;;0.69;74.75;97755.98;1746286;80;21606;-38
2021/12/20 05:37:16;;;;;;;1.80;1.00;;;;;;;0.70;74.72;97762.09;1742819;82;21032;-38
2021/12/20 05:39:44;;;;;;;2.47;1.10;;;;;;;0.71;74.72;97766.33;1753272;80;21026;-38
2021/12/20 05:42:11;;;;;;;3.77;1.60;;;;;;;0.66;74.79;97769.21;1758355;81;21138;-38
2021/12/20 05:44:37;;;;;;;2.77;1.30;;;;;;;0.62;74.88;97773.66;1758440;81;21627;-38
2021/12/20 05:47:04;;;;;;;2.12;1.10;;;;;;;0.63;74.88;97776.55;1763380;80;21528;-38
2021/12/20 05:49:31;;;;;;;2.67;1.27;;;;;;;0.61;74.92;97777.43;1756607;80;21028;-38
2021/12/20 05:52:02;;;;;;;1.75;0.90;;;;;;;0.63;74.88;97781.31;1768833;80;21016;-38
2021/12/20 05:54:30;;;;;;;1.52;1.17;;;;;;;0.71;74.79;97781.00;1766689;80;21148;-38
2021/12/20 05:56:57;;;;;;;2.05;1.37;;;;;;;0.71;74.77;97784.45;1756757;80;21522;-38
2021/12/20 05:59:24;;;;;;;2.17;1.10;;;;;;;0.72;74.73;97783.34;1755451;80;21318;-38
2021/12/20 06:01:51;;;;;;;1.27;0.90;;;;;;;0.73;74.73;97793.42;1755328;80;20991;-38
2021/12/20 06:04:17;;;;;;;1.70;1.02;;;;;;;0.75;74.78;97803.22;1766993;80;21081;-38
2021/12/20 06:06:44;;;;;;;1.32;1.00;;;;;;;0.78;74.75;97799.32;1765948;81;21134;-38
2021/12/20 06:09:11;;;;;;;1.87;1.05;;;;;;;0.85;74.70;97798.78;1761114;80;20969;-38
2021/12/20 06:11:38;;;;;;;3.20;1.40;;;;;;;0.88;74.61;97798.10;1742825;82;20965;-38
2021/12/20 06:14:04;;;;;;;3.77;1.30;;;;;;;0.86;74.59;97795.79;1742897;82;21014;-39
2021/12/20 06:16:32;;;;;;;2.47;1.10;;;;;;;0.87;74.66;97801.91;1751884;81;20973;-38
2021/12/20 06:18:59;;;;;;;2.62;0.98;;;;;;;0.88;74.53;97805.55;1755231;81;21143;-39
2021/12/20 06:21:26;;;;;;;1.57;1.22;;;;;;;0.89;74.67;97809.00;1743745;82;20965;-39
2021/12/20 06:23:52;;;;;;;1.55;0.90;;;;;;;0.88;74.80;97817.55;1748428;82;21498;-38
2021/12/20 06:26:23;;;;;;;2.08;1.37;;;;;;;0.89;74.87;97813.00;1760432;80;20961;-39
2021/12/20 06:28:48;;;;;;;2.33;1.02;;;;;;;0.95;74.86;97820.23;1779327;80;21538;-39
2021/12/20 06:31:15;;;;;;;1.92;1.27;;;;;;;1.00;74.81;97822.68;1757274;80;21133;-39
2021/12/20 06:33:41;;;;;;;1.62;1.15;;;;;;;0.99;74.75;97822.45;1748594;82;21056;-39
2021/12/20 06:36:08;;;;;;;1.70;1.02;;;;;;;0.97;74.85;97830.78;1748244;82;21043;-38
2021/12/20 06:38:35;;;;;;;1.85;1.27;;;;;;;0.97;75.00;97827.36;1748319;82;21243;-39
2021/12/20 06:41:02;;;;;;;1.90;0.98;;;;;;;1.01;75.16;97831.70;1748873;80;21044;-38
2021/12/20 06:43:30;;;;;;;2.20;1.10;;;;;;;1.06;75.20;97835.48;1763566;80;21072;-38
2021/12/20 06:45:57;;;;;;;1.50;1.10;;;;;;;1.07;75.10;97841.02;1779168;80;21009;-39
2021/12/20 06:48:23;;;;;;;2.17;0.90;;;;;;;1.11;75.10;97840.59;1779286;80;21031;-39
2021/12/20 06:50:50;;;;;;;1.05;0.90;;;;;;;1.18;74.90;97836.80;1779207;80;21060;-38
2021/12/20 06:53:16;;;;;;;1.47;1.00;;;;;;;1.23;74.55;97840.57;1779102;80;21025;-38
2021/12/20 06:55:43;;;;;;;1.12;1.02;;;;;;;1.22;74.35;97843.02;1779310;80;21826;-38
2021/12/20 06:58:10;;;;;;;1.92;1.10;;;;;;;1.20;74.35;97846.59;1755414;80;21935;-38
2021/12/20 07:00:37;;;;;;;1.60;1.10;;;;;;;1.22;74.15;97849.69;1773498;80;20953;-38
2021/12/20 07:03:04;;;;;;;1.42;1.10;;;;;;;1.26;73.83;97853.23;1752875;80;21349;-39
2021/12/20 07:05:31;;;;;;;1.45;1.10;;;;;;;1.26;73.63;97855.91;1751443;80;21021;-38
2021/12/20 07:07:57;;;;;;;2.65;1.20;;;;;;;1.21;73.60;97847.38;1751176;80;21135;-38
2021/12/20 07:10:24;;;;;;;1.75;1.17;;;;;;;1.17;73.65;97853.91;1748200;82;21017;-38
2021/12/20 07:12:51;;;;;;;2.37;1.40;;;;;;;1.21;73.67;97856.72;1750734;80;21562;-39
2021/12/20 07:15:18;;;;;;;3.08;1.90;;;;;;;1.26;73.36;97857.24;1758495;80;20997;-38
2021/12/20 07:17:45;;;;;;;2.12;1.52;;;;;;;1.27;73.17;97858.81;1753243;80;21101;-39
2021/12/20 07:20:12;;;;;;;4.03;1.50;;;;;;;1.24;72.89;97872.05;1748196;80;21117;-39
2021/12/20 07:22:39;;;;;;;3.55;1.60;;;;;;;1.23;73.10;97874.49;1752584;80;20960;-38
2021/12/20 07:25:08;;;;;;;2.35;1.37;;;;;;;1.31;72.98;97870.38;1764311;80;21018;-38
2021/12/20 07:27:35;;;;;;;4.40;1.80;;;;;;;1.40;72.80;97876.17;1771637;80;21531;-38
2021/12/20 07:30:03;;;;;;;4.05;2.10;;;;;;;1.42;72.81;97873.92;1742675;82;21049;-38
2021/12/20 07:32:32;;;;;;;3.85;1.70;;;;;;;1.44;72.84;97881.05;1742999;80;21028;-38
2021/12/20 07:34:58;;;;;;;4.05;1.87;;;;;;;1.12;72.42;97835.45;1756552;81;20969;-38
2021/12/20 07:37:27;;;;;;;3.17;2.08;;;;;;;1.48;72.47;97887.28;1755690;80;21033;-38
2021/12/20 07:39:54;;;;;;;2.83;1.55;;;;;;;1.50;72.37;97885.06;1766765;80;21021;-39
2021/12/20 07:42:20;;;;;;;2.75;1.67;;;;;;;1.48;72.58;97887.28;1752521;81;21346;-39
2021/12/20 07:44:47;;;;;;;3.02;1.75;;;;;;;1.44;72.66;97887.17;1762315;80;21125;-39
2021/12/20 07:47:14;;;;;;;2.72;1.65;;;;;;;1.43;72.89;97898.19;1772282;80;21507;-39
2021/12/20 07:49:40;;;;;;;2.67;1.67;;;;;;;1.50;72.86;97895.75;1773403;80;21049;-39
2021/12/20 07:52:07;;;;;;;5.78;2.15;;;;;;;1.54;72.94;97905.97;1753811;80;21013;-39
2021/12/20 07:54:34;;;;;;;3.47;2.17;;;;;;;1.60;73.05;97901.39;1762763;80;21578;-38
2021/12/20 07:57:01;;;;;;;2.70;1.87;;;;;;;1.64;72.65;97902.30;1755591;80;21198;-38
2021/12/20 07:59:28;;;;;;;2.87;1.80;;;;;;;1.65;72.53;97905.17;1762487;80;21630;-38
2021/12/20 08:01:55;;;;;;;2.35;1.52;;;;;;;1.69;72.50;97915.39;1762491;80;21559;-39
2021/12/20 08:04:22;;;;;;;2.98;1.40;;;;;;;1.71;72.53;97914.52;1772998;80;20969;-38
2021/12/20 08:06:49;;;;;;;3.50;1.40;;;;;;;1.71;72.31;97916.41;1737261;80;21046;-37
2021/12/20 08:09:16;;;;;;;1.50;1.22;;;;;;;1.70;72.22;97912.17;1765566;80;21767;-38
2021/12/20 08:11:43;;;;;;;2.77;1.42;;;;;;;1.66;71.97;97917.41;1744679;80;21246;-38
2021/12/20 08:14:10;;;;;;;3.15;1.40;;;;;;;1.68;71.66;97909.08;1750258;80;21052;-38
2021/12/20 08:16:37;;;;;;;2.37;1.50;;;;;;;1.66;71.34;97915.30;1749900;79;21045;-38
2021/12/20 08:19:03;;;;;;;2.12;1.57;;;;;;;1.62;71.34;97912.52;1758450;80;21064;-38
2021/12/20 08:21:31;;;;;;;1.75;1.20;;;;;;;1.60;71.38;97912.63;1778455;80;21827;-38
2021/12/20 08:23:57;;;;;;;2.27;1.30;;;;;;;1.55;70.58;97910.96;1771304;79;20992;-38
2021/12/20 08:26:26;;;;;;;4.33;1.40;;;;;;;1.53;70.66;97912.42;1777266;80;20965;-38
2021/12/20 08:28:53;;;;;;;1.87;1.30;;;;;;;1.50;70.74;97915.77;1754897;80;21502;-38
2021/12/20 08:31:20;;;;;;;1.45;1.17;;;;;;;1.49;71.04;97922.22;1773597;80;21044;-38
2021/12/20 08:33:46;;;;;;;2.25;1.50;;;;;;;1.51;71.37;97922.65;1775564;80;21208;-38
2021/12/20 08:37:28;;;;;;;2.55;1.80;;;;;;;1.62;71.60;97910.41;1807334;79;22646;-38
2021/12/20 08:39:55;;;;;;;2.17;1.60;;;;;;;1.62;71.66;97911.75;1787785;80;21064;-39
2021/12/20 08:42:40;;;;;;;1.45;1.15;;;;;;;1.63;71.37;97907.97;1773063;80;21025;-38
2021/12/20 08:45:09;;;;;;;1.72;1.40;;;;;;;1.62;71.43;97922.43;1756309;81;20933;-38
2021/12/20 08:47:36;;;;;;;2.00;1.30;;;;;;;1.62;71.35;97914.41;1756626;81;21000;-38
2021/12/20 08:50:05;;;;;;;3.02;1.60;;;;;;;1.62;71.32;97919.20;1756779;80;20969;-38
2021/12/20 08:52:34;;;;;;;2.98;1.47;;;;;;;1.60;71.49;97933.44;1776471;80;20925;-38
2021/12/20 08:55:19;;;;;;;1.77;1.10;;;;;;;1.58;71.68;97926.33;1781944;80;21103;-38
2021/12/20 08:57:46;;;;;;;2.08;1.37;;;;;;;1.60;72.02;97928.66;1787669;80;21557;-38
2021/12/20 09:00:18;;;;;;;1.98;1.40;;;;;;;1.67;71.97;97935.56;1785890;80;20917;-38
2021/12/20 09:02:44;;;;;;;2.77;1.40;;;;;;;1.73;71.87;97922.20;1780338;80;21056;-39
2021/12/20 09:05:11;;;;;;;1.92;1.30;;;;;;;1.80;71.95;97931.75;1761523;80;21570;-38
2021/12/20 09:07:59;;;;;;;1.70;1.20;;;;;;;1.84;71.50;97925.95;1750623;82;21000;-38
2021/12/20 09:10:24;;;;;;;2.05;1.20;;;;;;;1.85;71.14;97922.72;1750773;81;20981;-38
2021/12/20 09:12:52;;;;;;;1.75;1.40;;;;;;;1.89;70.99;97930.31;1767308;80;21011;-38
2021/12/20 09:15:18;;;;;;;2.08;1.22;;;;;;;1.91;70.99;97930.19;1775507;80;20925;-38
2021/12/20 09:17:52;;;;;;;2.67;1.40;;;;;;;1.90;71.14;97929.95;1762919;80;20970;-38
2021/12/20 09:20:21;;;;;;;2.37;1.17;;;;;;;1.94;71.12;97929.50;1763872;80;21063;-39
2021/12/20 09:22:51;;;;;;;3.75;1.50;;;;;;;1.96;71.16;97929.95;1759296;80;21012;-39
2021/12/20 09:25:21;;;;;;;2.12;1.30;;;;;;;2.05;70.91;97930.59;1759875;80;21248;-38
2021/12/20 09:27:49;;;;;;;3.45;1.70;;;;;;;2.11;70.53;97927.14;1772639;80;20966;-38
2021/12/20 09:30:16;;;;;;;2.52;1.82;;;;;;;2.15;70.58;97929.34;1780157;80;21522;-38
2021/12/20 09:32:44;;;;;;;2.77;1.75;;;;;;;2.17;70.38;97923.89;1788887;80;21126;-39
2021/12/20 09:35:10;;;;;;;3.58;1.85;;;;;;;2.16;70.27;97924.22;1764276;80;21041;-39
2021/12/20 09:37:38;;;;;;;3.42;2.00;;;;;;;2.14;70.07;97925.11;1744092;81;21118;-39
2021/12/20 09:40:15;;;;;;;2.60;1.85;;;;;;;2.11;70.02;97927.91;1743580;82;21038;-38
2021/12/20 09:42:49;;;;;;;2.62;1.70;;;;;;;2.12;70.10;97919.34;1761436;80;21029;-38
2021/12/20 09:45:21;;;;;;;3.20;1.95;;;;;;;2.13;70.55;97922.99;1747620;80;21140;-38
2021/12/20 09:47:48;;;;;;;2.15;1.60;;;;;;;2.19;70.64;97926.21;1745891;82;21024;-39
2021/12/20 09:50:15;;;;;;;3.47;1.80;;;;;;;2.23;70.14;97916.39;1766499;80;21535;-38
2021/12/20 09:52:42;;;;;;;2.40;2.00;;;;;;;2.22;70.21;97918.87;1768474;80;20933;-38
2021/12/20 09:55:10;;;;;;;3.65;2.05;;;;;;;2.23;69.93;97920.40;1755533;80;21048;-38
2021/12/20 09:57:37;;;;;;;1.92;1.52;;;;;;;2.25;70.38;97922.19;1741672;82;21120;-38
2021/12/20 10:00:06;;;;;;;4.62;1.82;;;;;;;2.24;70.48;97924.64;1732000;82;21034;-39
2021/12/20 10:02:36;;;;;;;2.70;1.90;;;;;;;2.26;70.83;97925.64;1731682;82;21018;-38
2021/12/20 10:05:04;;;;;;;2.87;1.77;;;;;;;2.28;71.06;97920.16;1763766;80;21054;-38
2021/12/20 10:07:32;;;;;;;3.40;1.95;;;;;;;2.30;70.93;97929.19;1767037;80;21028;-38
2021/12/20 10:10:00;;;;;;;2.30;1.55;;;;;;;2.24;71.25;97936.67;1768916;80;22293;-38
2021/12/20 10:12:27;;;;;;;2.00;1.40;;;;;;;2.16;71.84;97937.03;1746556;80;20937;-38
2021/12/20 10:15:01;;;;;;;1.77;1.50;;;;;;;2.10;72.16;97932.25;1743068;82;21026;-38
2021/12/20 10:17:55;;;;;;;2.15;1.87;;;;;;;2.01;72.53;97930.28;1759498;80;21024;-38
2021/12/20 10:20:24;;;;;;;2.60;1.80;;;;;;;1.99;72.92;97933.27;1754762;80;21571;-38
2021/12/20 10:22:51;;;;;;;3.02;2.00;;;;;;;2.04;73.04;97938.39;1742930;82;21110;-38
2021/12/20 10:25:30;;;;;;;2.05;1.60;;;;;;;2.09;73.11;97930.13;1769675;80;21566;-38
2021/12/20 10:28:11;;;;;;;1.80;1.40;;;;;;;2.10;73.13;97940.27;1761817;80;21006;-38
2021/12/20 10:30:45;;;;;;;1.30;1.20;;;;;;;2.07;72.99;97940.41;1740425;81;21818;-38
2021/12/20 10:33:21;;;;;;;1.40;1.02;;;;;;;2.02;72.42;97937.97;1745026;80;21064;-38
2021/12/20 10:35:55;;;;;;;2.20;1.00;;;;;;;1.99;72.12;97933.27;1743110;82;21208;-39
2021/12/20 10:38:29;;;;;;;1.82;0.88;;;;;;;1.97;71.82;97935.52;1749873;82;21036;-38
2021/12/20 10:41:04;;;;;;;2.10;1.00;;;;;;;1.95;71.40;97932.39;1750710;80;21021;-38
2021/12/20 10:43:39;;;;;;;2.17;1.50;;;;;;;1.85;71.29;97929.41;1751009;80;21001;-38
2021/12/20 10:46:28;;;;;;;1.82;1.70;;;;;;;1.75;71.36;97931.42;1751078;82;21590;-38
2021/12/20 10:49:03;;;;;;;2.65;2.20;;;;;;;1.71;71.33;97937.78;1750741;82;21971;-38
2021/12/20 10:51:40;;;;;;;3.85;2.00;;;;;;;1.40;71.53;97888.19;1750830;82;20988;-38
2021/12/20 10:54:11;;;;;;;1.65;1.50;;;;;;;1.88;71.64;97936.21;1750784;82;21021;-38
2021/12/20 10:57:00;;;;;;;1.98;1.40;;;;;;;1.96;71.52;97943.87;1751073;82;20972;-38
2021/12/20 10:59:30;;;;;;;2.02;1.62;;;;;;;1.97;71.15;97943.55;1735133;82;21080;-38
2021/12/20 11:02:54;;;;;;;2.02;1.65;;;;;;;1.92;71.33;97939.77;1751026;82;21195;-38
2021/12/20 11:04:34;;;;;;;3.02;1.50;;;;;;;1.98;71.17;97942.43;1718597;82;20982;-38
2021/12/20 11:09:04;;;;;;;2.12;1.27;;;;;;;2.05;71.09;97945.85;1750753;82;21561;-38
2021/12/20 11:09:40;;;;;;;2.22;1.37;;;;;;;2.07;71.11;97943.63;1745988;82;21040;-39
2021/12/20 11:12:16;;;;;;;2.83;1.40;;;;;;;2.08;70.99;97942.52;1750022;82;21562;-38
2021/12/20 11:14:45;;;;;;;3.30;1.57;;;;;;;2.08;70.86;97941.94;1750613;82;21656;-38
2021/12/20 11:17:17;;;;;;;1.92;1.70;;;;;;;2.11;71.08;97941.28;1750621;82;21525;-38
2021/12/20 11:19:46;;;;;;;;;;;;;;;2.25;71.09;97942.80;1753424;82;21597;-38
2021/12/20 11:22:22;;;;;;;2.50;1.50;;;;;;;2.34;70.64;97938.87;1750198;82;20463;-38
2021/12/20 11:25:03;;;;;;;2.70;1.45;;;;;;;2.25;70.29;97944.91;1750715;82;21040;-38
2021/12/20 11:27:40;;;;;;;2.52;1.77;;;;;;;2.25;70.33;97941.46;1750659;82;21199;-38
2021/12/20 11:30:11;;;;;;;1.77;1.20;;;;;;;2.23;69.56;97951.15;1750185;82;21020;-38
2021/12/20 11:32:40;;;;;;;3.22;1.60;;;;;;;2.11;69.07;97947.97;1751159;81;21324;-38
2021/12/20 11:35:07;;;;;;;3.17;1.75;;;;;;;2.06;69.52;97950.87;1750835;82;20980;-38
2021/12/20 11:37:35;;;;;;;2.40;1.40;;;;;;;2.04;68.89;97949.08;1745485;82;21496;-38
2021/12/20 11:40:05;;;;;;;1.95;1.30;;;;;;;2.07;67.99;97951.66;1742666;82;21208;-38
2021/12/20 11:42:34;;;;;;;2.35;1.40;;;;;;;2.04;67.66;97950.97;1742944;82;21012;-38
2021/12/20 11:45:05;;;;;;;3.92;2.17;;;;;;;1.99;67.68;97953.32;1742833;82;21021;-38
2021/12/20 11:47:53;;;;;;;2.45;1.50;;;;;;;2.01;67.39;97951.66;1743113;82;21048;-38
2021/12/20 11:50:23;;;;;;;2.75;1.42;;;;;;;2.00;66.69;97950.09;1742900;82;21021;-38
2021/12/20 11:52:52;;;;;;;1.77;1.30;;;;;;;1.96;66.71;97948.66;1743151;82;21101;-38
2021/12/20 11:55:28;;;;;;;1.65;1.17;;;;;;;1.95;66.50;97949.77;1743026;82;21903;-38
2021/12/20 11:58:01;;;;;;;2.95;2.00;;;;;;;1.96;66.78;97955.89;1743108;82;21020;-38